BGSFBGKK

Guest
Details From BGSF - Kangerlussuaq
To BGKK - Kulusuk
Flight Number -
Tags generated
Created
Modified
Stats Distance 339 nm / 628 km
Max Altitude 31,500 ft / 9,601 m
Waypoints 5
Social Downloads 1
Likes 0
Share VATSIM

Download

Looking for another format? Having issues loading an existing format? Contact us
Advertisement - Login to hide

Notes

Basic altitude profile: - Ascent Rate: 1800ft/min - Ascent Speed: 120kts - Cruise Altitude: 19000ft - Cruise Speed: 230kts - Descent Rate: 2000ft/min - Descent Speed: 210kts Options: - Use NATs: yes - Use PACOTS: yes - Use low airways: yes - Use high airways: yes

Route

BGSF PEVAR W28 DA BGKK

ID Type Via Altitude Latitude Longitude Leg Dist Tot Dist Heading (true) Name
O BGSF APT - 0 ft / 0 m 67.01160˚ -50.71472˚ - 0 nm - Kangerlussuaq
PEVAR FIX - 31,500 ft / 9,601 m 66.69917˚ -46.93972˚ 91 nm 91 nm 100° / 104° -
MASIK FIX W28 (AWY-LO) 15,000 ft / 4,572 m 65.96778˚ -39.99528˚ 172 nm 264 nm 102° / 108° -
DA NDB W28 (AWY-LO) 8,000 ft / 2,438 m 65.57056˚ -37.20694˚ 72 nm 336 nm 108° / 110° KULUSUK NDB
O BGKK APT - 0 ft / 0 m 65.57361˚ -37.12361˚ 2 nm 338 nm 85° / 85° Kulusuk

Altitude Profile

Advertisement - Login to hide

Weather


0- 5 10 15 20 25 30 35+ Temperature / ° C

Clouds and Precipitation
Forecast for 2017-12-14 18:00 UTC. Updated 23 minutes ago

Ground ~20,000 ft ~40,000 ft Winds

BGSF

Details ICAO BGSF (SFJ)
Name Kangerlussuaq
Region Greenland
Timezone America/Godthab (UTC-3.0)
Stats Elevation 165 ft / 50 m (AMSL)
Location 67.011605° -50.714721°
Runways 2
Magnetic Variation 29.035° W

METAR

BGSF 141450Z AUTO 07011KT 9999NDV NCD M16/M20 Q1018

Decode

TAF

TAF AMD BGSF 141210Z 1412/1518 06008KT 9999 FEW040 TEMPO 1509/1518 24012KT 4000 -SN BKN020

Decode

Departure Runways

ID Width Length Bearing (true) Bearing (mag) Surface Threshold Offset Overrun Length
09 197 ft / 60 m 9,169 ft / 2,795 m 61.57° 90.60° Asphalt 0 ft / 0 m 509 ft / 155 m
10 197 ft / 60 m 9,187 ft / 2,800 m 61.55° 90.58° Asphalt 0 ft / 0 m 0 ft / 0 m
27 197 ft / 60 m 9,169 ft / 2,795 m 241.63° 270.66° Asphalt 0 ft / 0 m 171 ft / 52 m
28 197 ft / 60 m 9,187 ft / 2,800 m 241.60° 270.63° Asphalt 0 ft / 0 m 0 ft / 0 m

BGKK

Details ICAO BGKK
Name Kulusuk
Region Greenland
Timezone America/Godthab (UTC-3.0)
Stats Elevation 114 ft / 35 m (AMSL)
Location 65.573608° -37.123608°
Runways 1
Magnetic Variation 22.319° W

METAR

BGKK 141450Z 07013KT 9999 BKN060 M01/M07 Q1013

Decode

TAF

Not found

Destination Runways

ID Width Length Bearing (true) Bearing (mag) Surface Threshold Offset Overrun Length
11 98 ft / 30 m 3,956 ft / 1,206 m 83.99° 106.31° Gravel 0 ft / 0 m 0 ft / 0 m
29 98 ft / 30 m 3,956 ft / 1,206 m 264.01° 286.33° Gravel 0 ft / 0 m 0 ft / 0 m

Popular Alternatives